createdAt,value
2022-12-17T00:00:37.223Z,10.93
2022-12-17T00:03:49.554Z,8.25
2022-12-17T00:06:30.430Z,10.53
2022-12-17T00:09:20.859Z,10.60
2022-12-17T00:12:11.412Z,14.10
2022-12-17T00:15:01.681Z,8.13
2022-12-17T00:17:52.359Z,7.35
2022-12-17T00:20:42.423Z,9.63
2022-12-17T00:23:33.239Z,8.40
2022-12-17T00:26:24.036Z,9.80
2022-12-17T00:29:14.622Z,8.25
2022-12-17T00:32:04.584Z,8.83
2022-12-17T00:34:54.698Z,13.30
2022-12-17T00:37:47.125Z,10.20
2022-12-17T00:40:37.547Z,10.15
2022-12-17T00:43:32.254Z,9.45
2022-12-17T00:46:22.885Z,9.90
2022-12-17T00:49:13.573Z,13.95
2022-12-17T00:52:03.626Z,9.98
2022-12-17T00:54:54.062Z,10.18
2022-12-17T00:57:46.101Z,11.10
2022-12-17T01:00:37.909Z,12.37
2022-12-17T01:03:30.567Z,15.60
2022-12-17T01:06:23.930Z,11.78
2022-12-17T01:12:05.399Z,10.53
2022-12-17T01:14:55.722Z,19.62
2022-12-17T01:17:45.874Z,12.73
2022-12-17T01:20:36.174Z,15.65
2022-12-17T01:23:29.394Z,11.22
2022-12-17T01:26:19.982Z,13.80
2022-12-17T01:29:10.703Z,10.80
2022-12-17T01:32:02.892Z,14.98
2022-12-17T01:34:53.137Z,9.50
2022-12-17T01:37:43.259Z,13.35
2022-12-17T01:40:47.170Z,9.40
2022-12-17T01:43:55.221Z,10.53
2022-12-17T01:46:46.688Z,10.82
2022-12-17T01:49:38.624Z,9.60
2022-12-17T01:52:50.290Z,8.98
2022-12-17T01:55:42.575Z,10.88
2022-12-17T01:58:33.859Z,8.65
2022-12-17T02:01:27.213Z,9.88
2022-12-17T02:04:17.679Z,9.18
2022-12-17T02:07:48.721Z,10.75
2022-12-17T02:11:09.499Z,9.33
2022-12-17T02:14:01.807Z,7.97
2022-12-17T02:16:59.440Z,8.30
2022-12-17T02:19:58.920Z,9.55
2022-12-17T02:23:35.354Z,12.30
2022-12-17T02:26:33.928Z,8.93
2022-12-17T02:29:24.654Z,9.25
2022-12-17T02:32:14.412Z,8.70
2022-12-17T02:35:05.599Z,8.83
2022-12-17T02:37:57.045Z,9.35
2022-12-17T02:40:47.207Z,8.80
2022-12-17T02:43:38.407Z,6.47
2022-12-17T02:46:28.609Z,7.65
2022-12-17T02:49:19.147Z,8.23
2022-12-17T02:52:09.864Z,7.90
2022-12-17T02:55:00.467Z,8.18
2022-12-17T02:57:54.027Z,6.33
2022-12-17T03:00:44.616Z,6.28
2022-12-17T03:03:35.471Z,7.58
2022-12-17T03:06:27.315Z,6.65
2022-12-17T03:09:17.857Z,8.58
2022-12-17T03:12:08.391Z,7.90
2022-12-17T03:14:58.542Z,7.65
2022-12-17T03:17:49.776Z,9.35
2022-12-17T03:20:39.753Z,7.35
2022-12-17T03:23:30.597Z,8.28
2022-12-17T03:26:21.846Z,7.25
2022-12-17T03:29:12.486Z,9.78
2022-12-17T03:32:02.695Z,6.58
2022-12-17T03:34:52.924Z,8.03
2022-12-17T03:37:42.935Z,7.47
2022-12-17T03:40:33.115Z,7.03
2022-12-17T03:43:30.607Z,11.53
2022-12-17T03:46:21.645Z,12.10
2022-12-17T03:49:11.736Z,8.38
2022-12-17T03:52:02.271Z,8.25
2022-12-17T03:54:53.494Z,9.28
2022-12-17T03:57:36.359Z,6.28
2022-12-17T04:00:27.973Z,13.40
2022-12-17T04:03:18.475Z,9.53
2022-12-17T04:06:08.732Z,7.78
2022-12-17T04:08:59.586Z,8.55
2022-12-17T04:11:50.568Z,7.33
2022-12-17T04:14:41.450Z,11.65
2022-12-17T04:17:32.221Z,8.98
2022-12-17T04:20:23.496Z,12.53
2022-12-17T04:23:13.994Z,8.70
2022-12-17T04:26:04.674Z,10.13
2022-12-17T04:28:58.602Z,14.80
2022-12-17T04:31:49.256Z,12.47
2022-12-17T04:34:39.134Z,10.82
2022-12-17T04:37:29.799Z,8.73
2022-12-17T04:40:20.037Z,11.12
2022-12-17T04:43:09.813Z,13.15
2022-12-17T04:45:59.970Z,10.68
2022-12-17T04:48:50.215Z,10.70
2022-12-17T04:51:40.434Z,8.40
2022-12-17T04:54:30.653Z,14.38
2022-12-17T04:57:21.380Z,10.72
2022-12-17T05:00:11.897Z,11.20
2022-12-17T05:03:02.706Z,9.93
2022-12-17T05:05:53.414Z,11.20
2022-12-17T05:08:43.580Z,11.83
2022-12-17T05:11:34.109Z,9.63
2022-12-17T05:14:24.131Z,15.48
2022-12-17T05:17:14.538Z,12.75
2022-12-17T05:20:04.771Z,9.30
2022-12-17T05:22:55.604Z,8.90
2022-12-17T05:25:45.860Z,9.30
2022-12-17T05:28:36.969Z,7.55
2022-12-17T05:31:27.506Z,8.93
2022-12-17T05:34:17.833Z,9.45
2022-12-17T05:36:55.049Z,10.63
2022-12-17T05:39:46.148Z,14.93
2022-12-17T05:42:36.927Z,14.25
2022-12-17T05:45:27.810Z,16.62
2022-12-17T05:48:18.524Z,17.75
2022-12-17T05:51:09.851Z,16.60
2022-12-17T05:54:00.585Z,16.90
2022-12-17T05:56:50.911Z,20.32
2022-12-17T05:59:41.276Z,16.40
2022-12-17T06:02:31.678Z,15.70
2022-12-17T06:05:22.707Z,15.68
2022-12-17T06:08:13.201Z,15.48
2022-12-17T06:11:03.760Z,16.25
2022-12-17T06:13:54.662Z,18.87
2022-12-17T06:16:45.348Z,13.55
2022-12-17T06:19:35.642Z,16.90
2022-12-17T06:22:25.625Z,17.65
2022-12-17T06:25:15.612Z,23.75
2022-12-17T06:28:05.809Z,22.58
2022-12-17T06:30:57.676Z,18.50
2022-12-17T06:33:48.029Z,20.02
2022-12-17T06:36:38.373Z,21.00
2022-12-17T06:39:29.392Z,27.98
2022-12-17T06:42:20.091Z,26.55
2022-12-17T06:45:10.903Z,22.80
2022-12-17T06:48:01.541Z,26.68
2022-12-17T06:50:51.994Z,31.82
2022-12-17T06:53:41.903Z,31.37
2022-12-17T06:56:32.736Z,33.30
2022-12-17T06:59:22.863Z,33.45
2022-12-17T07:02:15.271Z,23.62
2022-12-17T07:05:05.569Z,29.32
2022-12-17T07:07:56.108Z,30.20
2022-12-17T07:10:47.281Z,37.48
2022-12-17T07:13:39.412Z,25.95
2022-12-17T07:16:32.224Z,29.85
2022-12-17T07:19:27.090Z,28.70
2022-12-17T07:22:15.046Z,29.60
2022-12-17T07:25:05.334Z,29.92
2022-12-17T07:27:56.090Z,29.02
2022-12-17T07:30:50.192Z,27.90
2022-12-17T07:33:38.807Z,33.85
2022-12-17T07:36:30.975Z,24.92
2022-12-17T07:39:21.370Z,26.55
2022-12-17T07:42:12.530Z,25.75
2022-12-17T07:45:02.843Z,26.85
2022-12-17T07:47:54.552Z,34.85
2022-12-17T07:50:45.839Z,28.98
2022-12-17T07:53:36.382Z,32.53
2022-12-17T07:56:26.911Z,26.45
2022-12-17T07:59:17.316Z,25.65
2022-12-17T08:02:07.911Z,22.48
2022-12-17T08:04:58.293Z,19.95
2022-12-17T08:07:50.402Z,20.75
2022-12-17T08:10:43.354Z,19.90
2022-12-17T08:13:34.807Z,18.35
2022-12-17T08:16:26.506Z,22.30
2022-12-17T08:19:17.941Z,20.35
2022-12-17T08:22:08.567Z,27.95
2022-12-17T08:24:59.503Z,22.48
2022-12-17T08:27:49.869Z,21.02
2022-12-17T08:30:40.215Z,39.45
2022-12-17T08:33:30.775Z,24.27
2022-12-17T08:36:21.672Z,27.00
2022-12-17T08:39:12.273Z,21.90
2022-12-17T08:42:04.480Z,23.45
2022-12-17T08:44:55.816Z,20.40
2022-12-17T08:47:47.648Z,24.87
2022-12-17T08:50:38.464Z,22.82
2022-12-17T08:53:34.599Z,19.73
2022-12-17T08:56:20.603Z,22.65
2022-12-17T08:59:10.749Z,23.27
2022-12-17T09:02:01.454Z,26.70
2022-12-17T09:04:52.120Z,27.73
2022-12-17T09:07:42.604Z,25.60
2022-12-17T09:10:32.762Z,24.90
2022-12-17T09:13:23.702Z,24.20
2022-12-17T09:16:14.787Z,25.30
2022-12-17T09:19:05.332Z,44.42
2022-12-17T09:21:56.056Z,24.25
2022-12-17T09:24:46.334Z,24.63
2022-12-17T09:27:36.819Z,22.87
2022-12-17T09:30:28.178Z,25.70
2022-12-17T09:33:18.721Z,28.62
2022-12-17T09:36:10.078Z,23.75
2022-12-17T09:39:00.362Z,26.20
2022-12-17T09:41:59.122Z,26.33
2022-12-17T09:44:56.693Z,30.88
2022-12-17T09:48:29.486Z,37.33
2022-12-17T09:51:18.035Z,28.80
2022-12-17T09:54:11.811Z,27.37
2022-12-17T09:57:02.209Z,26.90
2022-12-17T09:59:54.056Z,28.35
2022-12-17T10:02:47.264Z,36.17
2022-12-17T10:05:45.678Z,20.70
2022-12-17T10:08:39.278Z,20.68
2022-12-17T10:11:41.968Z,17.75
2022-12-17T10:14:40.959Z,18.73
2022-12-17T10:17:59.687Z,27.48
2022-12-17T10:20:49.435Z,21.27
2022-12-17T10:23:46.647Z,20.50
2022-12-17T10:26:57.643Z,22.73
2022-12-17T10:29:50.641Z,27.13
2022-12-17T10:32:42.972Z,30.32
2022-12-17T10:35:44.438Z,24.80
2022-12-17T10:38:48.658Z,24.10
2022-12-17T10:41:47.331Z,24.82
2022-12-17T10:44:49.914Z,25.00
2022-12-17T10:47:42.433Z,37.03
2022-12-17T10:51:00.930Z,28.80
2022-12-17T10:53:51.649Z,28.00
2022-12-17T10:56:44.826Z,32.40
2022-12-17T10:59:54.622Z,28.55
2022-12-17T11:02:49.090Z,32.80
2022-12-17T11:05:47.794Z,31.17
2022-12-17T11:08:38.661Z,30.27
2022-12-17T11:11:30.381Z,34.40
2022-12-17T11:14:20.852Z,30.77
2022-12-17T11:17:15.011Z,36.55
2022-12-17T11:20:18.226Z,37.03
2022-12-17T11:23:13.369Z,33.58
2022-12-17T11:26:32.613Z,34.83
2022-12-17T11:29:22.398Z,33.05
2022-12-17T11:32:50.088Z,33.53
2022-12-17T11:36:02.298Z,33.38
2022-12-17T11:38:58.523Z,31.55
2022-12-17T11:42:11.548Z,34.95
2022-12-17T11:45:33.896Z,32.53
2022-12-17T11:48:32.191Z,36.58
2022-12-17T11:51:39.460Z,37.20
2022-12-17T11:54:43.493Z,33.35
2022-12-17T16:19:30.646Z,6.50
2022-12-17T16:22:02.989Z,5.62
2022-12-17T16:24:35.868Z,6.10
2022-12-17T16:27:09.232Z,6.20
2022-12-17T16:29:41.783Z,6.83
2022-12-17T16:32:14.251Z,5.65
2022-12-17T16:34:47.136Z,5.47
2022-12-17T16:37:19.458Z,6.22
2022-12-17T16:39:59.580Z,6.53
2022-12-17T16:42:35.486Z,5.97
2022-12-17T16:45:09.033Z,5.67
2022-12-17T16:47:41.578Z,18.07
2022-12-17T16:50:15.480Z,73.20
2022-12-17T16:52:48.288Z,14.80
2022-12-17T16:55:20.873Z,8.50
2022-12-17T16:57:54.066Z,5.87
2022-12-17T17:00:26.404Z,6.70
2022-12-17T17:02:59.092Z,36.60
2022-12-17T17:05:34.421Z,11.22
2022-12-17T17:08:07.731Z,7.10
2022-12-17T17:10:40.805Z,4.75
2022-12-17T17:13:14.766Z,5.20
2022-12-17T17:15:47.548Z,4.95
2022-12-17T17:18:24.598Z,3.75
2022-12-17T17:23:36.846Z,3.85
2022-12-17T17:26:09.721Z,4.37
2022-12-17T17:28:42.262Z,4.80
2022-12-17T17:31:16.162Z,4.60
2022-12-17T17:33:50.029Z,4.77
2022-12-17T17:36:28.484Z,5.50
2022-12-17T17:39:06.065Z,8.38
2022-12-17T17:41:43.378Z,8.58
2022-12-17T17:44:16.015Z,5.67
2022-12-17T17:46:48.372Z,4.72
2022-12-17T17:49:20.914Z,4.42
2022-12-17T17:52:10.930Z,4.15
2022-12-17T17:54:28.207Z,4.00
2022-12-17T17:57:00.594Z,4.35
2022-12-17T17:59:34.400Z,3.45
2022-12-17T18:02:07.209Z,3.27
2022-12-17T18:04:40.308Z,3.67
2022-12-17T18:07:25.327Z,4.17
2022-12-17T18:09:48.942Z,6.22
2022-12-17T18:12:39.547Z,4.87
2022-12-17T18:15:14.873Z,3.60
2022-12-17T18:17:50.742Z,2.85
2022-12-17T18:20:23.136Z,2.58
2022-12-17T18:22:55.659Z,2.98
2022-12-17T18:25:30.506Z,2.92
2022-12-17T18:28:02.768Z,5.67
2022-12-17T18:30:35.470Z,3.62
2022-12-17T18:33:08.043Z,3.80
2022-12-17T18:35:40.513Z,4.42
2022-12-17T18:38:14.736Z,3.80
2022-12-17T18:40:47.201Z,4.10
2022-12-17T18:43:25.314Z,3.45
2022-12-17T18:45:57.704Z,4.47
2022-12-17T18:48:30.254Z,7.87
2022-12-17T18:51:07.422Z,7.70
2022-12-17T18:53:40.037Z,2.58
2022-12-17T18:56:19.377Z,3.27
2022-12-17T19:01:31.894Z,3.15
2022-12-17T19:04:10.900Z,4.30
2022-12-17T19:06:43.783Z,1.55
2022-12-17T19:09:19.883Z,2.72
2022-12-17T19:11:52.813Z,3.02
2022-12-17T19:14:25.964Z,2.15
2022-12-17T19:16:58.789Z,2.27
2022-12-17T19:19:31.252Z,2.77
2022-12-17T19:22:04.162Z,1.85
2022-12-17T19:24:40.631Z,1.67
2022-12-17T19:27:13.385Z,1.37
2022-12-17T19:29:49.882Z,1.70
2022-12-17T19:32:22.443Z,2.75
2022-12-17T19:34:55.269Z,1.77
2022-12-17T19:37:27.912Z,1.72
2022-12-17T19:40:00.732Z,2.33
2022-12-17T19:42:37.433Z,2.40
2022-12-17T19:45:09.844Z,4.47
2022-12-17T19:50:13.982Z,2.75
2022-12-17T19:52:47.120Z,3.20
2022-12-17T19:55:23.635Z,4.40
2022-12-17T19:57:56.777Z,4.15
2022-12-17T20:00:29.397Z,3.02
2022-12-17T20:03:02.415Z,2.40
2022-12-17T20:05:35.670Z,3.13
2022-12-17T20:08:08.521Z,3.05
2022-12-17T20:10:43.368Z,2.65
2022-12-17T20:13:16.304Z,28.40
2022-12-17T20:15:50.750Z,5.50
2022-12-17T20:18:23.662Z,3.27
2022-12-17T20:21:07.679Z,2.85
2022-12-17T20:23:41.292Z,2.83
2022-12-17T20:26:13.694Z,2.60
2022-12-17T20:28:46.726Z,4.80
2022-12-17T20:31:19.252Z,4.08
2022-12-17T20:33:51.954Z,2.90
2022-12-17T20:36:24.909Z,2.65
2022-12-17T20:38:57.365Z,2.77
2022-12-17T20:41:31.017Z,3.15
2022-12-17T20:44:08.267Z,3.22
2022-12-17T20:46:41.288Z,3.70
2022-12-17T20:49:15.088Z,3.83
2022-12-17T20:51:47.984Z,4.12
2022-12-17T20:54:20.570Z,4.60
2022-12-17T20:56:54.756Z,4.30
2022-12-17T20:59:28.811Z,3.67
2022-12-17T21:02:01.863Z,3.80
2022-12-17T21:04:35.790Z,4.55
2022-12-17T21:07:08.440Z,4.60
2022-12-17T21:09:41.032Z,5.62
2022-12-17T21:12:13.991Z,4.78
2022-12-17T21:14:47.192Z,5.70
2022-12-17T21:17:21.841Z,5.72
2022-12-17T21:19:54.953Z,5.90
2022-12-17T21:22:29.031Z,6.05
2022-12-17T21:25:01.798Z,6.75
2022-12-17T21:27:34.790Z,8.85
2022-12-17T21:30:10.633Z,5.78
2022-12-17T21:32:43.228Z,8.08
2022-12-17T21:35:20.689Z,6.87
2022-12-17T21:37:56.038Z,7.67
2022-12-17T21:40:31.589Z,7.00
2022-12-17T21:43:04.603Z,7.58
2022-12-17T21:45:38.851Z,8.15
2022-12-17T21:50:46.395Z,9.08
2022-12-17T21:53:19.566Z,9.43
2022-12-17T21:56:05.025Z,8.70
2022-12-17T23:55:22.746Z,24.43
2022-12-17T23:57:56.757Z,25.25
